sensor_id;sensor_type;location;lat;lon;timestamp;P1;durP1;ratioP1;P2;durP2;ratioP2
53339;SDS011;46212;50.258;19.062;2023-04-23T00:02:01;25.13;;;13.57;;
53339;SDS011;46212;50.258;19.062;2023-04-23T00:04:27;27.00;;;14.33;;
53339;SDS011;46212;50.258;19.062;2023-04-23T00:06:54;22.23;;;12.50;;
53339;SDS011;46212;50.258;19.062;2023-04-23T00:09:21;24.52;;;12.13;;
53339;SDS011;46212;50.258;19.062;2023-04-23T00:11:47;27.90;;;13.43;;
53339;SDS011;46212;50.258;19.062;2023-04-23T00:14:12;22.97;;;13.23;;
53339;SDS011;46212;50.258;19.062;2023-04-23T00:16:38;17.63;;;11.93;;
53339;SDS011;46212;50.258;19.062;2023-04-23T00:19:04;24.90;;;12.75;;
53339;SDS011;46212;50.258;19.062;2023-04-23T00:21:29;23.37;;;12.13;;
53339;SDS011;46212;50.258;19.062;2023-04-23T00:23:55;20.17;;;11.13;;
53339;SDS011;46212;50.258;19.062;2023-04-23T00:26:21;22.37;;;10.60;;
53339;SDS011;46212;50.258;19.062;2023-04-23T00:28:46;21.20;;;12.30;;
53339;SDS011;46212;50.258;19.062;2023-04-23T00:31:12;20.60;;;11.47;;
53339;SDS011;46212;50.258;19.062;2023-04-23T00:33:37;21.73;;;11.10;;
53339;SDS011;46212;50.258;19.062;2023-04-23T00:36:03;16.17;;;10.87;;
53339;SDS011;46212;50.258;19.062;2023-04-23T00:38:28;21.87;;;11.47;;
53339;SDS011;46212;50.258;19.062;2023-04-23T00:40:54;23.13;;;12.60;;
53339;SDS011;46212;50.258;19.062;2023-04-23T00:43:19;23.40;;;12.57;;
53339;SDS011;46212;50.258;19.062;2023-04-23T00:45:45;20.37;;;10.93;;
53339;SDS011;46212;50.258;19.062;2023-04-23T00:48:11;21.10;;;12.10;;
53339;SDS011;46212;50.258;19.062;2023-04-23T00:50:37;28.03;;;12.47;;
53339;SDS011;46212;50.258;19.062;2023-04-23T00:53:02;21.60;;;12.63;;
53339;SDS011;46212;50.258;19.062;2023-04-23T00:55:28;20.27;;;11.63;;
53339;SDS011;46212;50.258;19.062;2023-04-23T00:57:53;20.43;;;12.77;;
53339;SDS011;46212;50.258;19.062;2023-04-23T01:00:19;22.53;;;12.60;;
53339;SDS011;46212;50.258;19.062;2023-04-23T01:02:45;23.10;;;12.70;;
53339;SDS011;46212;50.258;19.062;2023-04-23T01:05:12;21.95;;;12.10;;
53339;SDS011;46212;50.258;19.062;2023-04-23T01:07:39;21.63;;;12.65;;
53339;SDS011;46212;50.258;19.062;2023-04-23T01:10:08;22.23;;;12.43;;
53339;SDS011;46212;50.258;19.062;2023-04-23T01:12:36;24.92;;;12.60;;
53339;SDS011;46212;50.258;19.062;2023-04-23T01:15:01;21.27;;;12.87;;
53339;SDS011;46212;50.258;19.062;2023-04-23T01:17:27;24.88;;;12.43;;
53339;SDS011;46212;50.258;19.062;2023-04-23T01:19:53;21.03;;;12.33;;
53339;SDS011;46212;50.258;19.062;2023-04-23T01:22:19;32.23;;;13.63;;
53339;SDS011;46212;50.258;19.062;2023-04-23T01:24:44;19.77;;;11.53;;
53339;SDS011;46212;50.258;19.062;2023-04-23T01:27:11;24.60;;;12.93;;
53339;SDS011;46212;50.258;19.062;2023-04-23T01:29:37;23.67;;;13.43;;
53339;SDS011;46212;50.258;19.062;2023-04-23T01:32:03;25.85;;;12.27;;
53339;SDS011;46212;50.258;19.062;2023-04-23T01:34:29;23.10;;;11.18;;
53339;SDS011;46212;50.258;19.062;2023-04-23T01:36:56;21.90;;;13.10;;
53339;SDS011;46212;50.258;19.062;2023-04-23T01:39:22;20.02;;;12.57;;
53339;SDS011;46212;50.258;19.062;2023-04-23T01:41:48;23.13;;;12.83;;
53339;SDS011;46212;50.258;19.062;2023-04-23T01:44:13;17.37;;;11.43;;
53339;SDS011;46212;50.258;19.062;2023-04-23T01:46:39;21.07;;;12.70;;
53339;SDS011;46212;50.258;19.062;2023-04-23T01:49:05;25.60;;;14.33;;
53339;SDS011;46212;50.258;19.062;2023-04-23T01:51:30;19.07;;;11.23;;
53339;SDS011;46212;50.258;19.062;2023-04-23T01:53:56;22.20;;;12.50;;
53339;SDS011;46212;50.258;19.062;2023-04-23T01:56:22;20.13;;;10.87;;
53339;SDS011;46212;50.258;19.062;2023-04-23T01:58:51;19.45;;;11.63;;
53339;SDS011;46212;50.258;19.062;2023-04-23T02:01:16;18.73;;;10.97;;
53339;SDS011;46212;50.258;19.062;2023-04-23T02:03:42;20.93;;;12.33;;
53339;SDS011;46212;50.258;19.062;2023-04-23T02:06:08;18.95;;;10.35;;
53339;SDS011;46212;50.258;19.062;2023-04-23T02:08:34;19.87;;;10.97;;
53339;SDS011;46212;50.258;19.062;2023-04-23T02:11:00;21.20;;;11.47;;
53339;SDS011;46212;50.258;19.062;2023-04-23T02:13:25;22.87;;;12.67;;
53339;SDS011;46212;50.258;19.062;2023-04-23T02:15:50;21.37;;;11.73;;
53339;SDS011;46212;50.258;19.062;2023-04-23T02:18:16;22.13;;;11.20;;
53339;SDS011;46212;50.258;19.062;2023-04-23T02:20:41;23.40;;;13.30;;
53339;SDS011;46212;50.258;19.062;2023-04-23T02:23:07;19.00;;;11.73;;
53339;SDS011;46212;50.258;19.062;2023-04-23T02:25:33;19.93;;;12.20;;
53339;SDS011;46212;50.258;19.062;2023-04-23T02:27:58;22.93;;;11.43;;
53339;SDS011;46212;50.258;19.062;2023-04-23T02:30:25;27.48;;;13.70;;
53339;SDS011;46212;50.258;19.062;2023-04-23T02:32:51;23.00;;;12.50;;
53339;SDS011;46212;50.258;19.062;2023-04-23T02:35:17;24.20;;;12.23;;
53339;SDS011;46212;50.258;19.062;2023-04-23T02:37:42;25.23;;;12.77;;
53339;SDS011;46212;50.258;19.062;2023-04-23T02:40:08;22.27;;;13.33;;
53339;SDS011;46212;50.258;19.062;2023-04-23T02:42:34;23.13;;;13.70;;
53339;SDS011;46212;50.258;19.062;2023-04-23T02:44:59;22.03;;;13.47;;
53339;SDS011;46212;50.258;19.062;2023-04-23T02:47:25;32.20;;;13.63;;
53339;SDS011;46212;50.258;19.062;2023-04-23T02:49:50;22.37;;;12.93;;
53339;SDS011;46212;50.258;19.062;2023-04-23T02:52:16;23.37;;;14.10;;
53339;SDS011;46212;50.258;19.062;2023-04-23T02:54:41;26.23;;;14.30;;
53339;SDS011;46212;50.258;19.062;2023-04-23T02:57:07;23.93;;;13.60;;
53339;SDS011;46212;50.258;19.062;2023-04-23T02:59:32;24.93;;;13.97;;
53339;SDS011;46212;50.258;19.062;2023-04-23T03:01:58;27.40;;;14.80;;
53339;SDS011;46212;50.258;19.062;2023-04-23T03:04:23;33.07;;;15.43;;
53339;SDS011;46212;50.258;19.062;2023-04-23T03:06:48;29.33;;;16.07;;
53339;SDS011;46212;50.258;19.062;2023-04-23T03:09:14;26.77;;;15.23;;
53339;SDS011;46212;50.258;19.062;2023-04-23T03:11:39;26.17;;;13.63;;
53339;SDS011;46212;50.258;19.062;2023-04-23T03:14:05;27.97;;;14.83;;
53339;SDS011;46212;50.258;19.062;2023-04-23T03:16:30;26.00;;;15.57;;
53339;SDS011;46212;50.258;19.062;2023-04-23T03:18:56;31.23;;;15.30;;
53339;SDS011;46212;50.258;19.062;2023-04-23T03:21:23;29.17;;;16.15;;
53339;SDS011;46212;50.258;19.062;2023-04-23T03:23:48;26.93;;;15.87;;
53339;SDS011;46212;50.258;19.062;2023-04-23T03:26:14;28.77;;;16.60;;
53339;SDS011;46212;50.258;19.062;2023-04-23T03:28:39;27.13;;;16.83;;
53339;SDS011;46212;50.258;19.062;2023-04-23T03:31:05;31.73;;;16.45;;
53339;SDS011;46212;50.258;19.062;2023-04-23T03:33:30;30.25;;;17.52;;
53339;SDS011;46212;50.258;19.062;2023-04-23T03:35:56;29.90;;;15.37;;
53339;SDS011;46212;50.258;19.062;2023-04-23T03:38:21;30.27;;;16.57;;
53339;SDS011;46212;50.258;19.062;2023-04-23T03:40:46;28.63;;;17.10;;
53339;SDS011;46212;50.258;19.062;2023-04-23T03:43:12;29.13;;;16.10;;
53339;SDS011;46212;50.258;19.062;2023-04-23T03:45:37;39.13;;;18.23;;
53339;SDS011;46212;50.258;19.062;2023-04-23T03:48:02;29.83;;;17.07;;
53339;SDS011;46212;50.258;19.062;2023-04-23T03:50:28;32.23;;;16.87;;
53339;SDS011;46212;50.258;19.062;2023-04-23T03:52:53;25.50;;;15.60;;
53339;SDS011;46212;50.258;19.062;2023-04-23T03:55:19;32.90;;;16.10;;
53339;SDS011;46212;50.258;19.062;2023-04-23T03:57:45;31.93;;;16.30;;
53339;SDS011;46212;50.258;19.062;2023-04-23T04:00:10;27.97;;;15.87;;
53339;SDS011;46212;50.258;19.062;2023-04-23T04:02:36;33.97;;;17.17;;
53339;SDS011;46212;50.258;19.062;2023-04-23T04:05:03;29.65;;;16.15;;
53339;SDS011;46212;50.258;19.062;2023-04-23T04:07:31;31.10;;;15.63;;
53339;SDS011;46212;50.258;19.062;2023-04-23T04:09:58;27.90;;;16.45;;
53339;SDS011;46212;50.258;19.062;2023-04-23T04:12:23;30.83;;;17.13;;
53339;SDS011;46212;50.258;19.062;2023-04-23T04:14:49;35.27;;;16.93;;
53339;SDS011;46212;50.258;19.062;2023-04-23T04:17:15;31.58;;;18.23;;
53339;SDS011;46212;50.258;19.062;2023-04-23T04:19:41;37.50;;;17.63;;
53339;SDS011;46212;50.258;19.062;2023-04-23T04:22:07;38.40;;;19.70;;
53339;SDS011;46212;50.258;19.062;2023-04-23T04:24:33;35.60;;;19.92;;
53339;SDS011;46212;50.258;19.062;2023-04-23T04:27:00;40.77;;;22.93;;
53339;SDS011;46212;50.258;19.062;2023-04-23T04:29:25;46.17;;;20.30;;
53339;SDS011;46212;50.258;19.062;2023-04-23T04:31:52;34.63;;;18.70;;
53339;SDS011;46212;50.258;19.062;2023-04-23T04:34:21;35.22;;;18.60;;
53339;SDS011;46212;50.258;19.062;2023-04-23T04:36:47;39.92;;;19.58;;
53339;SDS011;46212;50.258;19.062;2023-04-23T04:39:12;41.37;;;19.97;;
53339;SDS011;46212;50.258;19.062;2023-04-23T04:41:39;36.27;;;19.43;;
53339;SDS011;46212;50.258;19.062;2023-04-23T04:44:05;38.95;;;21.30;;
53339;SDS011;46212;50.258;19.062;2023-04-23T04:46:32;42.47;;;21.52;;
53339;SDS011;46212;50.258;19.062;2023-04-23T04:48:59;41.63;;;21.40;;
53339;SDS011;46212;50.258;19.062;2023-04-23T04:51:24;37.30;;;20.58;;
53339;SDS011;46212;50.258;19.062;2023-04-23T04:53:51;44.28;;;21.00;;
53339;SDS011;46212;50.258;19.062;2023-04-23T04:56:16;40.73;;;21.67;;
53339;SDS011;46212;50.258;19.062;2023-04-23T04:58:42;44.33;;;22.60;;
53339;SDS011;46212;50.258;19.062;2023-04-23T05:01:07;52.67;;;24.03;;
53339;SDS011;46212;50.258;19.062;2023-04-23T05:03:33;44.63;;;22.60;;
53339;SDS011;46212;50.258;19.062;2023-04-23T05:05:59;41.88;;;21.52;;
53339;SDS011;46212;50.258;19.062;2023-04-23T05:08:25;51.27;;;24.53;;
53339;SDS011;46212;50.258;19.062;2023-04-23T05:10:50;41.43;;;21.23;;
53339;SDS011;46212;50.258;19.062;2023-04-23T05:13:17;40.80;;;20.13;;
53339;SDS011;46212;50.258;19.062;2023-04-23T05:15:44;41.20;;;19.67;;
53339;SDS011;46212;50.258;19.062;2023-04-23T05:20:36;35.05;;;17.10;;
53339;SDS011;46212;50.258;19.062;2023-04-23T05:23:02;34.95;;;17.45;;
53339;SDS011;46212;50.258;19.062;2023-04-23T05:25:28;34.20;;;21.43;;
53339;SDS011;46212;50.258;19.062;2023-04-23T05:27:54;33.45;;;19.88;;
53339;SDS011;46212;50.258;19.062;2023-04-23T05:30:19;33.73;;;18.93;;
53339;SDS011;46212;50.258;19.062;2023-04-23T05:32:45;30.10;;;18.27;;
53339;SDS011;46212;50.258;19.062;2023-04-23T05:35:10;34.20;;;19.50;;
53339;SDS011;46212;50.258;19.062;2023-04-23T05:37:36;33.80;;;20.83;;
53339;SDS011;46212;50.258;19.062;2023-04-23T05:40:01;32.27;;;19.90;;
53339;SDS011;46212;50.258;19.062;2023-04-23T05:42:28;28.90;;;18.08;;
53339;SDS011;46212;50.258;19.062;2023-04-23T05:44:54;32.30;;;17.90;;
53339;SDS011;46212;50.258;19.062;2023-04-23T05:47:19;33.43;;;18.23;;
53339;SDS011;46212;50.258;19.062;2023-04-23T05:49:45;28.93;;;17.47;;
53339;SDS011;46212;50.258;19.062;2023-04-23T05:52:10;31.87;;;16.50;;
53339;SDS011;46212;50.258;19.062;2023-04-23T05:54:36;30.40;;;17.90;;
53339;SDS011;46212;50.258;19.062;2023-04-23T05:57:03;35.28;;;17.27;;
53339;SDS011;46212;50.258;19.062;2023-04-23T05:59:30;38.92;;;17.77;;
53339;SDS011;46212;50.258;19.062;2023-04-23T06:01:55;28.40;;;17.00;;
53339;SDS011;46212;50.258;19.062;2023-04-23T06:04:21;24.87;;;15.90;;
53339;SDS011;46212;50.258;19.062;2023-04-23T06:06:46;34.10;;;16.67;;
53339;SDS011;46212;50.258;19.062;2023-04-23T06:09:12;31.43;;;19.60;;
53339;SDS011;46212;50.258;19.062;2023-04-23T06:11:37;30.57;;;18.47;;
53339;SDS011;46212;50.258;19.062;2023-04-23T06:14:03;40.10;;;18.37;;
53339;SDS011;46212;50.258;19.062;2023-04-23T06:16:28;27.03;;;17.23;;
53339;SDS011;46212;50.258;19.062;2023-04-23T06:18:54;28.87;;;16.37;;
53339;SDS011;46212;50.258;19.062;2023-04-23T06:21:22;28.45;;;15.48;;
53339;SDS011;46212;50.258;19.062;2023-04-23T06:23:48;26.93;;;15.83;;
53339;SDS011;46212;50.258;19.062;2023-04-23T06:26:13;20.90;;;11.63;;
53339;SDS011;46212;50.258;19.062;2023-04-23T06:28:40;17.57;;;9.50;;
53339;SDS011;46212;50.258;19.062;2023-04-23T06:31:07;13.88;;;8.13;;
53339;SDS011;46212;50.258;19.062;2023-04-23T06:33:32;12.30;;;8.17;;
53339;SDS011;46212;50.258;19.062;2023-04-23T06:35:58;13.83;;;7.73;;
53339;SDS011;46212;50.258;19.062;2023-04-23T06:38:24;16.43;;;8.27;;
53339;SDS011;46212;50.258;19.062;2023-04-23T06:40:49;11.20;;;6.37;;
53339;SDS011;46212;50.258;19.062;2023-04-23T06:43:15;11.47;;;6.37;;
53339;SDS011;46212;50.258;19.062;2023-04-23T06:45:40;11.23;;;6.70;;
53339;SDS011;46212;50.258;19.062;2023-04-23T06:48:06;15.10;;;7.17;;
53339;SDS011;46212;50.258;19.062;2023-04-23T06:50:31;14.20;;;6.93;;
53339;SDS011;46212;50.258;19.062;2023-04-23T06:52:56;13.83;;;7.53;;
53339;SDS011;46212;50.258;19.062;2023-04-23T06:55:22;11.90;;;6.77;;
53339;SDS011;46212;50.258;19.062;2023-04-23T06:57:52;15.02;;;6.53;;
53339;SDS011;46212;50.258;19.062;2023-04-23T07:00:18;9.23;;;6.13;;
53339;SDS011;46212;50.258;19.062;2023-04-23T07:02:43;10.55;;;6.65;;
53339;SDS011;46212;50.258;19.062;2023-04-23T07:05:10;7.53;;;5.35;;
53339;SDS011;46212;50.258;19.062;2023-04-23T07:07:35;12.83;;;5.80;;
53339;SDS011;46212;50.258;19.062;2023-04-23T07:10:02;8.93;;;5.40;;
53339;SDS011;46212;50.258;19.062;2023-04-23T07:12:29;9.65;;;5.22;;
53339;SDS011;46212;50.258;19.062;2023-04-23T07:14:54;11.63;;;5.13;;
53339;SDS011;46212;50.258;19.062;2023-04-23T07:17:20;10.10;;;6.27;;
53339;SDS011;46212;50.258;19.062;2023-04-23T07:19:46;8.83;;;5.53;;
53339;SDS011;46212;50.258;19.062;2023-04-23T07:22:12;22.77;;;12.77;;
53339;SDS011;46212;50.258;19.062;2023-04-23T07:24:37;12.07;;;6.27;;
53339;SDS011;46212;50.258;19.062;2023-04-23T07:27:03;10.57;;;5.37;;
53339;SDS011;46212;50.258;19.062;2023-04-23T07:29:28;14.50;;;5.73;;
53339;SDS011;46212;50.258;19.062;2023-04-23T07:31:54;9.73;;;6.13;;
53339;SDS011;46212;50.258;19.062;2023-04-23T07:34:20;8.38;;;5.35;;
53339;SDS011;46212;50.258;19.062;2023-04-23T07:36:45;14.20;;;6.47;;
53339;SDS011;46212;50.258;19.062;2023-04-23T07:39:10;12.10;;;6.03;;
53339;SDS011;46212;50.258;19.062;2023-04-23T07:41:36;7.63;;;5.47;;
53339;SDS011;46212;50.258;19.062;2023-04-23T07:44:02;8.47;;;4.30;;
53339;SDS011;46212;50.258;19.062;2023-04-23T07:46:28;10.82;;;6.05;;
53339;SDS011;46212;50.258;19.062;2023-04-23T07:48:53;11.17;;;5.33;;
53339;SDS011;46212;50.258;19.062;2023-04-23T07:51:19;9.30;;;5.40;;
53339;SDS011;46212;50.258;19.062;2023-04-23T07:53:46;14.15;;;5.68;;
53339;SDS011;46212;50.258;19.062;2023-04-23T07:56:15;13.82;;;5.60;;
53339;SDS011;46212;50.258;19.062;2023-04-23T07:58:40;12.55;;;6.40;;
53339;SDS011;46212;50.258;19.062;2023-04-23T08:01:06;11.67;;;5.37;;
53339;SDS011;46212;50.258;19.062;2023-04-23T08:03:31;6.53;;;4.47;;
53339;SDS011;46212;50.258;19.062;2023-04-23T08:05:57;7.67;;;5.23;;
53339;SDS011;46212;50.258;19.062;2023-04-23T08:08:22;7.90;;;5.40;;
53339;SDS011;46212;50.258;19.062;2023-04-23T08:10:48;11.83;;;5.57;;
53339;SDS011;46212;50.258;19.062;2023-04-23T08:13:13;9.47;;;5.43;;
53339;SDS011;46212;50.258;19.062;2023-04-23T08:15:38;10.77;;;5.43;;
53339;SDS011;46212;50.258;19.062;2023-04-23T08:18:04;10.33;;;5.83;;
53339;SDS011;46212;50.258;19.062;2023-04-23T08:20:30;7.80;;;5.47;;
53339;SDS011;46212;50.258;19.062;2023-04-23T08:22:56;8.68;;;5.50;;
53339;SDS011;46212;50.258;19.062;2023-04-23T08:25:21;9.63;;;4.80;;
53339;SDS011;46212;50.258;19.062;2023-04-23T08:27:47;9.97;;;6.00;;
53339;SDS011;46212;50.258;19.062;2023-04-23T08:30:12;10.87;;;5.00;;
53339;SDS011;46212;50.258;19.062;2023-04-23T08:32:38;9.30;;;6.53;;
53339;SDS011;46212;50.258;19.062;2023-04-23T08:35:04;10.35;;;4.97;;
53339;SDS011;46212;50.258;19.062;2023-04-23T08:37:30;10.32;;;4.47;;
53339;SDS011;46212;50.258;19.062;2023-04-23T08:39:56;10.13;;;4.47;;
53339;SDS011;46212;50.258;19.062;2023-04-23T08:44:58;8.52;;;4.32;;
53339;SDS011;46212;50.258;19.062;2023-04-23T08:47:25;7.45;;;4.47;;
53339;SDS011;46212;50.258;19.062;2023-04-23T08:49:53;12.30;;;5.20;;
53339;SDS011;46212;50.258;19.062;2023-04-23T08:52:23;9.23;;;4.28;;
53339;SDS011;46212;50.258;19.062;2023-04-23T08:54:53;9.52;;;3.90;;
53339;SDS011;46212;50.258;19.062;2023-04-23T08:57:24;6.70;;;3.75;;
53339;SDS011;46212;50.258;19.062;2023-04-23T08:59:50;4.55;;;3.20;;
53339;SDS011;46212;50.258;19.062;2023-04-23T09:02:17;6.70;;;3.30;;
53339;SDS011;46212;50.258;19.062;2023-04-23T09:04:43;5.80;;;3.50;;
53339;SDS011;46212;50.258;19.062;2023-04-23T09:07:10;6.53;;;3.65;;
53339;SDS011;46212;50.258;19.062;2023-04-23T09:09:37;5.75;;;2.92;;
53339;SDS011;46212;50.258;19.062;2023-04-23T09:14:29;5.38;;;2.72;;
53339;SDS011;46212;50.258;19.062;2023-04-23T09:16:54;6.17;;;2.67;;
53339;SDS011;46212;50.258;19.062;2023-04-23T09:19:19;5.63;;;3.33;;
53339;SDS011;46212;50.258;19.062;2023-04-23T09:21:45;10.47;;;4.53;;
53339;SDS011;46212;50.258;19.062;2023-04-23T09:24:11;6.63;;;3.07;;
53339;SDS011;46212;50.258;19.062;2023-04-23T09:26:44;5.90;;;3.03;;
53339;SDS011;46212;50.258;19.062;2023-04-23T09:29:20;7.28;;;3.63;;
53339;SDS011;46212;50.258;19.062;2023-04-23T09:31:48;5.22;;;3.40;;
53339;SDS011;46212;50.258;19.062;2023-04-23T09:34:18;4.50;;;2.60;;
53339;SDS011;46212;50.258;19.062;2023-04-23T09:36:45;3.97;;;2.67;;
53339;SDS011;46212;50.258;19.062;2023-04-23T09:39:14;5.60;;;2.95;;
53339;SDS011;46212;50.258;19.062;2023-04-23T09:41:42;5.35;;;3.03;;
53339;SDS011;46212;50.258;19.062;2023-04-23T09:44:10;4.57;;;2.53;;
53339;SDS011;46212;50.258;19.062;2023-04-23T09:46:41;6.10;;;2.75;;
53339;SDS011;46212;50.258;19.062;2023-04-23T09:49:08;4.63;;;2.63;;
53339;SDS011;46212;50.258;19.062;2023-04-23T09:51:44;3.85;;;2.40;;
53339;SDS011;46212;50.258;19.062;2023-04-23T09:56:43;6.00;;;3.15;;
53339;SDS011;46212;50.258;19.062;2023-04-23T10:01:56;6.63;;;2.92;;
53339;SDS011;46212;50.258;19.062;2023-04-23T10:04:26;4.22;;;2.90;;
53339;SDS011;46212;50.258;19.062;2023-04-23T10:09:21;6.75;;;2.78;;
53339;SDS011;46212;50.258;19.062;2023-04-23T10:11:51;6.15;;;2.67;;
53339;SDS011;46212;50.258;19.062;2023-04-23T10:14:18;6.82;;;2.63;;
53339;SDS011;46212;50.258;19.062;2023-04-23T10:16:45;4.72;;;2.80;;
53339;SDS011;46212;50.258;19.062;2023-04-23T10:19:14;5.70;;;3.38;;
53339;SDS011;46212;50.258;19.062;2023-04-23T10:21:43;7.07;;;2.63;;
53339;SDS011;46212;50.258;19.062;2023-04-23T10:24:13;9.48;;;4.00;;
53339;SDS011;46212;50.258;19.062;2023-04-23T10:26:41;4.28;;;2.28;;
53339;SDS011;46212;50.258;19.062;2023-04-23T10:29:11;3.35;;;2.20;;
53339;SDS011;46212;50.258;19.062;2023-04-23T10:31:39;5.90;;;2.38;;
53339;SDS011;46212;50.258;19.062;2023-04-23T10:34:06;9.07;;;2.40;;
53339;SDS011;46212;50.258;19.062;2023-04-23T10:36:34;4.32;;;2.63;;
53339;SDS011;46212;50.258;19.062;2023-04-23T10:39:03;6.95;;;2.90;;
53339;SDS011;46212;50.258;19.062;2023-04-23T10:41:36;5.55;;;2.60;;
53339;SDS011;46212;50.258;19.062;2023-04-23T10:44:03;5.28;;;3.03;;
53339;SDS011;46212;50.258;19.062;2023-04-23T10:49:06;11.07;;;4.18;;
53339;SDS011;46212;50.258;19.062;2023-04-23T10:51:40;6.95;;;3.00;;
53339;SDS011;46212;50.258;19.062;2023-04-23T10:54:08;4.85;;;2.30;;
53339;SDS011;46212;50.258;19.062;2023-04-23T10:56:38;3.80;;;2.20;;
53339;SDS011;46212;50.258;19.062;2023-04-23T10:59:09;5.50;;;2.88;;
53339;SDS011;46212;50.258;19.062;2023-04-23T11:01:44;4.00;;;2.47;;
53339;SDS011;46212;50.258;19.062;2023-04-23T11:04:20;6.65;;;3.05;;
53339;SDS011;46212;50.258;19.062;2023-04-23T11:12:12;5.22;;;3.00;;
53339;SDS011;46212;50.258;19.062;2023-04-23T11:14:55;6.93;;;3.05;;
53339;SDS011;46212;50.258;19.062;2023-04-23T11:18:05;5.15;;;2.72;;
53339;SDS011;46212;50.258;19.062;2023-04-23T11:22:40;4.88;;;2.95;;
53339;SDS011;46212;50.258;19.062;2023-04-23T11:25:08;7.50;;;2.67;;
53339;SDS011;46212;50.258;19.062;2023-04-23T11:27:55;3.63;;;2.38;;
53339;SDS011;46212;50.258;19.062;2023-04-23T11:32:49;8.20;;;2.92;;
53339;SDS011;46212;50.258;19.062;2023-04-23T11:35:17;5.35;;;2.80;;
53339;SDS011;46212;50.258;19.062;2023-04-23T11:37:44;5.85;;;2.63;;
53339;SDS011;46212;50.258;19.062;2023-04-23T11:40:12;13.82;;;9.48;;
53339;SDS011;46212;50.258;19.062;2023-04-23T11:42:47;5.18;;;2.88;;
53339;SDS011;46212;50.258;19.062;2023-04-23T11:45:21;6.22;;;2.83;;
53339;SDS011;46212;50.258;19.062;2023-04-23T11:47:49;4.82;;;3.08;;
53339;SDS011;46212;50.258;19.062;2023-04-23T11:50:20;4.95;;;2.63;;
53339;SDS011;46212;50.258;19.062;2023-04-23T11:52:47;7.50;;;3.17;;
53339;SDS011;46212;50.258;19.062;2023-04-23T11:55:12;5.83;;;2.93;;
53339;SDS011;46212;50.258;19.062;2023-04-23T11:57:41;5.63;;;2.90;;
53339;SDS011;46212;50.258;19.062;2023-04-23T12:02:58;7.00;;;3.20;;
53339;SDS011;46212;50.258;19.062;2023-04-23T12:05:34;5.50;;;2.60;;
53339;SDS011;46212;50.258;19.062;2023-04-23T12:15:51;3.50;;;2.60;;
53339;SDS011;46212;50.258;19.062;2023-04-23T12:18:25;4.15;;;2.53;;
53339;SDS011;46212;50.258;19.062;2023-04-23T12:20:52;6.63;;;2.67;;
53339;SDS011;46212;50.258;19.062;2023-04-23T12:23:18;8.48;;;2.67;;
53339;SDS011;46212;50.258;19.062;2023-04-23T12:25:43;4.93;;;2.73;;
53339;SDS011;46212;50.258;19.062;2023-04-23T12:28:08;9.90;;;3.13;;
53339;SDS011;46212;50.258;19.062;2023-04-23T12:30:40;4.67;;;2.90;;
53339;SDS011;46212;50.258;19.062;2023-04-23T12:33:09;28.02;;;12.52;;
53339;SDS011;46212;50.258;19.062;2023-04-23T12:35:38;117.28;;;56.53;;
53339;SDS011;46212;50.258;19.062;2023-04-23T12:38:19;12.93;;;4.22;;
53339;SDS011;46212;50.258;19.062;2023-04-23T12:40:49;11.27;;;3.97;;
53339;SDS011;46212;50.258;19.062;2023-04-23T12:43:15;55.47;;;33.55;;
53339;SDS011;46212;50.258;19.062;2023-04-23T12:45:41;10.70;;;4.80;;
53339;SDS011;46212;50.258;19.062;2023-04-23T12:48:06;4.73;;;2.97;;
53339;SDS011;46212;50.258;19.062;2023-04-23T12:50:31;4.43;;;2.65;;
53339;SDS011;46212;50.258;19.062;2023-04-23T12:52:57;5.50;;;4.10;;
53339;SDS011;46212;50.258;19.062;2023-04-23T12:55:22;4.32;;;2.70;;
53339;SDS011;46212;50.258;19.062;2023-04-23T12:57:48;4.70;;;2.80;;
53339;SDS011;46212;50.258;19.062;2023-04-23T13:02:40;4.93;;;3.05;;
53339;SDS011;46212;50.258;19.062;2023-04-23T13:05:05;4.10;;;3.13;;
53339;SDS011;46212;50.258;19.062;2023-04-23T13:09:56;4.90;;;2.90;;
53339;SDS011;46212;50.258;19.062;2023-04-23T13:12:23;5.25;;;3.15;;
53339;SDS011;46212;50.258;19.062;2023-04-23T13:14:49;4.38;;;2.72;;
53339;SDS011;46212;50.258;19.062;2023-04-23T13:17:14;5.05;;;2.92;;
53339;SDS011;46212;50.258;19.062;2023-04-23T13:19:39;4.38;;;2.92;;
53339;SDS011;46212;50.258;19.062;2023-04-23T13:22:05;5.97;;;3.20;;
53339;SDS011;46212;50.258;19.062;2023-04-23T13:24:31;6.88;;;2.80;;
53339;SDS011;46212;50.258;19.062;2023-04-23T13:26:56;4.57;;;3.40;;
53339;SDS011;46212;50.258;19.062;2023-04-23T13:29:22;3.95;;;2.30;;
53339;SDS011;46212;50.258;19.062;2023-04-23T13:31:48;4.80;;;2.47;;
53339;SDS011;46212;50.258;19.062;2023-04-23T13:34:13;3.85;;;2.75;;
53339;SDS011;46212;50.258;19.062;2023-04-23T13:36:39;6.40;;;3.00;;
53339;SDS011;46212;50.258;19.062;2023-04-23T13:39:07;7.30;;;3.60;;
53339;SDS011;46212;50.258;19.062;2023-04-23T13:41:35;5.03;;;3.20;;
53339;SDS011;46212;50.258;19.062;2023-04-23T13:44:00;3.75;;;2.28;;
53339;SDS011;46212;50.258;19.062;2023-04-23T13:46:26;6.15;;;3.05;;
53339;SDS011;46212;50.258;19.062;2023-04-23T13:48:54;4.97;;;2.88;;
53339;SDS011;46212;50.258;19.062;2023-04-23T13:51:20;4.53;;;2.70;;
53339;SDS011;46212;50.258;19.062;2023-04-23T13:53:46;4.10;;;2.40;;
53339;SDS011;46212;50.258;19.062;2023-04-23T13:56:11;5.10;;;2.50;;
53339;SDS011;46212;50.258;19.062;2023-04-23T13:58:37;4.38;;;2.40;;
53339;SDS011;46212;50.258;19.062;2023-04-23T14:01:06;4.00;;;2.60;;
53339;SDS011;46212;50.258;19.062;2023-04-23T14:03:32;5.15;;;2.58;;
53339;SDS011;46212;50.258;19.062;2023-04-23T14:05:57;4.32;;;2.72;;
53339;SDS011;46212;50.258;19.062;2023-04-23T14:08:23;4.25;;;2.75;;
53339;SDS011;46212;50.258;19.062;2023-04-23T14:10:49;4.22;;;2.53;;
53339;SDS011;46212;50.258;19.062;2023-04-23T14:13:14;5.82;;;2.83;;
53339;SDS011;46212;50.258;19.062;2023-04-23T14:15:40;4.55;;;2.40;;
53339;SDS011;46212;50.258;19.062;2023-04-23T14:18:06;4.30;;;2.50;;
53339;SDS011;46212;50.258;19.062;2023-04-23T14:20:32;4.82;;;3.00;;
53339;SDS011;46212;50.258;19.062;2023-04-23T14:23:01;6.65;;;2.80;;
53339;SDS011;46212;50.258;19.062;2023-04-23T14:25:39;4.40;;;2.30;;
53339;SDS011;46212;50.258;19.062;2023-04-23T14:30:57;6.22;;;3.65;;
53339;SDS011;46212;50.258;19.062;2023-04-23T14:33:24;5.28;;;3.28;;
53339;SDS011;46212;50.258;19.062;2023-04-23T14:35:49;4.78;;;2.60;;
53339;SDS011;46212;50.258;19.062;2023-04-23T14:38:15;3.75;;;2.65;;
53339;SDS011;46212;50.258;19.062;2023-04-23T14:40:40;7.50;;;2.83;;
53339;SDS011;46212;50.258;19.062;2023-04-23T14:43:06;5.32;;;2.28;;
53339;SDS011;46212;50.258;19.062;2023-04-23T14:45:31;4.28;;;2.58;;
53339;SDS011;46212;50.258;19.062;2023-04-23T14:47:57;5.55;;;3.05;;
53339;SDS011;46212;50.258;19.062;2023-04-23T14:50:23;4.63;;;2.67;;
53339;SDS011;46212;50.258;19.062;2023-04-23T14:52:49;4.78;;;2.92;;
53339;SDS011;46212;50.258;19.062;2023-04-23T14:55:16;4.43;;;2.55;;
53339;SDS011;46212;50.258;19.062;2023-04-23T15:00:07;7.93;;;3.00;;
53339;SDS011;46212;50.258;19.062;2023-04-23T15:02:37;5.15;;;2.70;;
53339;SDS011;46212;50.258;19.062;2023-04-23T15:05:06;3.30;;;1.95;;
53339;SDS011;46212;50.258;19.062;2023-04-23T15:07:33;5.45;;;3.20;;